Costa Pacifica — ICJA — position and weather

sailwx.info

Track history (hours):
 
Tides and Currents Weather Stations Pressure Air Temp Water Temp Dewpoint Dewpoint Depression Visibility Wind Speed Wind Dir Waves Ship Positions

Costa Pacifica

Last reported at 2017-Apr-24 21:00 UTC. Time now 2017-Apr-24 21:04 UTC.
Position N 42°23' E 003°58'.

Length 290 m; draft 8.3 m.

Type: Ship. MMSI: 247258100.

Date/timePositionNaut miles runAvg speedWind from/ knotsBaromVisibWave heightAir tempDewpointWater temp
2017-Apr-24 21:00N 42°23' E 003°58'1313.0
2017-Apr-24 19:58N 42°32' E 004°11'2713.2
2017-Apr-24 17:58N 42°51' E 004°36'613.6
2017-Apr-24 17:30N 42°55' E 004°42'918.7
2017-Apr-24 17:00N 43°02' E 004°52'918.6
2017-Apr-24 16:30N 43°08' E 005°01'918.6
2017-Apr-24 16:00N 43°15' E 005°10'816.5
2017-Apr-24 15:30N 43°21' E 005°18'2 2.7
2017-Apr-24 14:55N 43°21' E 005°20'0 0.0
2017-Apr-24 14:22N 43°21' E 005°20'0 0.0
2017-Apr-24 13:30N 43°21' E 005°20'0 0.0
2017-Apr-24 12:57N 43°21' E 005°20'0 0.0
2017-Apr-24 12:18N 43°21' E 005°20'0 0.0
2017-Apr-24 12:00N 43°21' E 005°20'0 0.0
2017-Apr-24 11:30N 43°21' E 005°20'0 0.0
2017-Apr-24 10:59N 43°21' E 005°20'0 0.0
2017-Apr-24 10:26N 43°21' E 005°20'0 0.0
2017-Apr-24 09:50N 43°21' E 005°20'0 0.0
2017-Apr-24 09:29N 43°21' E 005°20'0 0.0
2017-Apr-24 08:58N 43°21' E 005°20'0 0.0
2017-Apr-24 08:22N 43°21' E 005°20'0 0.0
2017-Apr-24 07:37N 43°21' E 005°20'0 0.0
2017-Apr-24 07:16N 43°21' E 005°20'0 0.0
2017-Apr-24 06:58N 43°21' E 005°20'0 0.0
2017-Apr-24 06:30N 43°21' E 005°20'0 0.0
2017-Apr-24 05:57N 43°21' E 005°20'0 0.0
2017-Apr-24 05:30N 43°21' E 005°20'1 2.9
2017-Apr-24 05:00N 43°21' E 005°18'5 9.1
2017-Apr-24 04:30N 43°18' E 005°14'816.5
2017-Apr-24 04:00N 43°10' E 005°19'7611.7
2017-Apr-23 21:34N 43°12' E 007°02'113.4
2017-Apr-23 21:30N 43°13' E 007°03'713.4
2017-Apr-23 21:00N 43°17' E 007°10'713.5
2017-Apr-23 20:31N 43°21' E 007°18'713.4
2017-Apr-23 20:00N 43°25' E 007°25'713.4
2017-Apr-23 19:30N 43°29' E 007°33'713.5
2017-Apr-23 19:01N 43°33' E 007°40'815.9
2017-Apr-23 18:30N 43°38' E 007°48'1019.0
2017-Apr-23 18:00N 43°45' E 007°58'1318.9
2017-Apr-23 17:20N 43°54' E 008°10'619.1
2017-Apr-23 17:00N 43°58' E 008°16'919.0
2017-Apr-23 16:31N 44°06' E 008°23'918.2
2017-Apr-23 16:01N 44°13' E 008°31'611.3
2017-Apr-23 15:30N 44°19' E 008°30'1 1.6
2017-Apr-23 14:59N 44°19' E 008°29'0 0.0
2017-Apr-23 13:55N 44°19' E 008°29'0 0.0
2017-Apr-23 13:25N 44°19' E 008°29'0 0.0
2017-Apr-23 12:55N 44°19' E 008°29'0 0.0
2017-Apr-23 12:28N 44°19' E 008°29'0 0.0
2017-Apr-23 11:55N 44°19' E 008°29'0 0.0
2017-Apr-23 11:30N 44°19' E 008°29'0 0.0
2017-Apr-23 11:00N 44°19' E 008°29'0 0.0
2017-Apr-23 10:30N 44°19' E 008°29'0 0.0
2017-Apr-23 10:00N 44°19' E 008°29'0 0.0
2017-Apr-23 09:30N 44°19' E 008°29'0 0.0
2017-Apr-23 08:59N 44°19' E 008°29'0 0.0
2017-Apr-23 08:29N 44°19' E 008°29'0 0.0
2017-Apr-23 07:53N 44°19' E 008°29'0 0.0
2017-Apr-23 07:27N 44°19' E 008°29'0 0.0
2017-Apr-23 07:00N 44°19' E 008°29'0 0.0
2017-Apr-23 06:30N 44°19' E 008°29'0 0.0
2017-Apr-23 06:00N 44°19' E 008°29'0 0.3
2017-Apr-23 05:30N 44°19' E 008°29'2 4.9
2017-Apr-23 05:00N 44°18' E 008°33'816.1
2017-Apr-23 04:30N 44°11' E 008°39'713.2
2017-Apr-23 04:01N 44°06' E 008°43'612.5
2017-Apr-23 03:30N 44°00' E 008°48'612.9
2017-Apr-23 03:00N 43°55' E 008°53'612.7
2017-Apr-23 02:30N 43°50' E 008°58'612.4
2017-Apr-23 02:00N 43°44' E 009°02'612.3
2017-Apr-23 01:30N 43°39' E 009°07'816.9
2017-Apr-23 01:00N 43°32' E 009°13'918.2
2017-Apr-23 00:30N 43°24' E 009°19'918.0
2017-Apr-23 00:01N 43°17' E 009°27'917.8
2017-Apr-22 23:30N 43°09' E 009°33'918.2
2017-Apr-22 23:00N 43°01' E 009°39'1218.4
2017-Apr-22 22:22N 42°51' E 009°47'2019.0
2017-Apr-22 21:19N 42°39' E 010°09'618.9
2017-Apr-22 21:00N 42°35' E 010°15'1718.8
2017-Apr-22 20:07N 42°25' E 010°33'204 7.6
2017-Apr-21 17:19N 39°05' E 009°41'618.1
2017-Apr-21 16:59N 39°01' E 009°35'816.5
2017-Apr-21 16:30N 39°01' E 009°25'918.2
2017-Apr-21 16:00N 39°05' E 009°15'816.5
2017-Apr-21 15:30N 39°10' E 009°06'2 4.1
2017-Apr-21 14:58N 39°13' E 009°06'0 0.0
2017-Apr-21 14:30N 39°13' E 009°06'0 0.0
2017-Apr-21 13:30N 39°13' E 009°06'0 0.0
2017-Apr-21 13:00N 39°13' E 009°06'0 0.0
2017-Apr-21 12:30N 39°13' E 009°06'0 0.0
2017-Apr-21 11:59N 39°13' E 009°06'0 0.0
2017-Apr-21 11:29N 39°13' E 009°06'0 0.0
2017-Apr-21 10:59N 39°13' E 009°06'0 0.0
2017-Apr-21 10:29N 39°13' E 009°06'0 0.0
2017-Apr-21 09:58N 39°13' E 009°06'0 0.0
2017-Apr-21 09:28N 39°13' E 009°06'0 0.0
2017-Apr-21 08:58N 39°13' E 009°06'0 0.0
2017-Apr-21 08:28N 39°13' E 009°06'0 0.0
2017-Apr-21 07:58N 39°13' E 009°06'0 0.0
2017-Apr-21 07:30N 39°13' E 009°06'0 0.0
2017-Apr-21 07:00N 39°13' E 009°06'0 0.0
2017-Apr-21 06:30N 39°13' E 009°06'0 0.0
2017-Apr-21 06:00N 39°13' E 009°06'0 0.3
2017-Apr-21 05:30N 39°12' E 009°07'2 3.4
2017-Apr-21 05:00N 39°11' E 009°06'815.7
2017-Apr-21 04:30N 39°03' E 009°08'917.9
2017-Apr-21 04:00N 38°56' E 009°01'917.9
2017-Apr-21 03:30N 38°50' E 008°52'3217.2
2017-Apr-21 01:39N 38°45' E 008°11'22412.4
2017-Apr-20 07:40N 39°03' E 003°25'211.9
2017-Apr-20 07:30N 39°03' E 003°22'611.9
2017-Apr-20 07:00N 39°04' E 003°15'611.8
2017-Apr-20 06:30N 39°04' E 003°07'611.6
2017-Apr-20 06:00N 39°05' E 002°60'611.3
2017-Apr-20 05:30N 39°05' E 002°52'611.6
2017-Apr-20 05:00N 39°06' E 002°45'612.3
2017-Apr-20 04:30N 39°07' E 002°37'612.6
2017-Apr-20 04:00N 39°08' E 002°29'612.6
2017-Apr-20 03:30N 39°08' E 002°21'612.2
2017-Apr-20 03:00N 39°09' E 002°13'612.1
2017-Apr-20 02:30N 39°10' E 002°05'612.0
2017-Apr-20 02:00N 39°11' E 001°58'611.6
2017-Apr-20 01:30N 39°12' E 001°51'611.3
2017-Apr-20 01:00N 39°12' E 001°43'611.1
2017-Apr-20 00:30N 39°13' E 001°36'510.8
2017-Apr-20 00:00N 39°13' E 001°29'611.2
2017-Apr-19 23:30N 39°14' E 001°22'610.9
2017-Apr-19 23:00N 39°15' E 001°15'610.6
2017-Apr-19 22:23N 39°16' E 001°07'5511.0
2017-Apr-19 17:24N 39°23' W 000°04'717.2
2017-Apr-19 17:00N 39°23' W 000°12'612.0
2017-Apr-19 16:31N 39°27' W 000°18'0 0.6
2017-Apr-19 15:59N 39°28' W 000°18'0 0.0
2017-Apr-19 15:28N 39°28' W 000°18'0 0.0
2017-Apr-19 14:58N 39°28' W 000°18'0 0.0
2017-Apr-19 14:28N 39°28' W 000°18'0 0.0
2017-Apr-19 13:24N 39°28' W 000°18'0 0.0
2017-Apr-19 13:00N 39°28' W 000°18'0 0.0
2017-Apr-19 12:30N 39°28' W 000°18'0 0.0
2017-Apr-19 12:00N 39°28' W 000°18'0 0.0
2017-Apr-19 11:30N 39°28' W 000°18'0 0.0
2017-Apr-19 10:59N 39°28' W 000°18'0 0.0
2017-Apr-19 10:29N 39°28' W 000°18'0 0.0
2017-Apr-19 09:59N 39°28' W 000°18'0 0.0
2017-Apr-19 09:29N 39°28' W 000°18'0 0.0
2017-Apr-19 08:55N 39°28' W 000°18'0 0.0
2017-Apr-19 08:28N 39°28' W 000°18'0 0.0
2017-Apr-19 07:58N 39°28' W 000°18'0 0.0
2017-Apr-19 07:28N 39°28' W 000°18'0 0.0
2017-Apr-19 06:58N 39°28' W 000°18'0 0.0
2017-Apr-19 06:30N 39°28' W 000°18'0 0.0
2017-Apr-19 06:00N 39°28' W 000°18'0 0.4
2017-Apr-19 05:31N 39°27' W 000°18'2 4.1
2017-Apr-19 05:01N 39°25' W 000°17'611.2
2017-Apr-19 04:28N 39°25' W 000°09'5813.0
2017-Apr-19 00:00N 40°08' E 000°42'713.2
2017-Apr-18 23:30N 40°12' E 000°49'713.1
2017-Apr-18 23:00N 40°16' E 000°55'713.2
2017-Apr-18 22:30N 40°21' E 001°02'713.0
2017-Apr-18 22:00N 40°25' E 001°08'612.8
2017-Apr-18 21:30N 40°29' E 001°14'612.6
2017-Apr-18 21:00N 40°33' E 001°21'613.0
2017-Apr-18 20:31N 40°37' E 001°27'713.3
2017-Apr-18 20:00N 40°42' E 001°33'713.4
2017-Apr-18 19:31N 40°47' E 001°39'713.5
2017-Apr-18 19:00N 40°53' E 001°44'713.2
2017-Apr-18 18:30N 40°58' E 001°50'816.0
2017-Apr-18 18:00N 41°04' E 001°57'918.9
2017-Apr-18 17:30N 41°11' E 002°05'916.2
2017-Apr-18 16:58N 41°19' E 002°10'3 0.4
2017-Apr-18 10:00N 41°22' E 002°11'0 0.0
2017-Apr-18 07:17N 41°22' E 002°11'0 0.0
2017-Apr-18 06:52N 41°22' E 002°11'0 0.0
2017-Apr-18 06:16N 41°22' E 002°11'0 0.0
2017-Apr-18 05:58N 41°22' E 002°11'0 0.4
2017-Apr-18 05:30N 41°22' E 002°11'3 5.1
2017-Apr-18 04:59N 41°19' E 002°10'4 9.3
2017-Apr-18 04:30N 41°17' E 002°15'713.4
2017-Apr-18 04:00N 41°21' E 002°22'713.5
2017-Apr-18 03:30N 41°25' E 002°29'713.5
2017-Apr-18 03:00N 41°29' E 002°37'713.2
2017-Apr-18 02:27N 41°34' E 002°44'1113.1
2017-Apr-18 01:36N 41°40' E 002°56'213.3
2017-Apr-18 01:29N 41°41' E 002°58'613.2
2017-Apr-18 01:00N 41°45' E 003°05'2113.0
2017-Apr-17 23:21N 41°59' E 003°26'2013.4
2017-Apr-17 21:52N 42°13' E 003°45'913.3
2017-Apr-17 21:09N 42°20' E 003°54'213.5
2017-Apr-17 21:00N 42°21' E 003°56'713.6
2017-Apr-17 20:30N 42°26' E 004°03'2112.9
2017-Apr-17 18:53N 42°41' E 004°23'612.8
2017-Apr-17 18:24N 42°45' E 004°29'612.9
2017-Apr-17 17:56N 42°49' E 004°35'613.1
2017-Apr-17 17:30N 42°53' E 004°40'1018.5
2017-Apr-17 16:58N 43°00' E 004°50'818.2
2017-Apr-17 16:30N 43°06' E 004°58'918.2
2017-Apr-17 16:00N 43°13' E 005°07'917.8
2017-Apr-17 15:31N 43°19' E 005°16'4 6.9
2017-Apr-17 14:59N 43°21' E 005°20'0 0.0
2017-Apr-17 13:59N 43°21' E 005°20'0 0.0
2017-Apr-17 13:28N 43°21' E 005°20'0 0.0
2017-Apr-17 12:52N 43°21' E 005°20'0 0.0
2017-Apr-17 12:28N 43°21' E 005°20'0 0.0
2017-Apr-17 11:49N 43°21' E 005°20'0 0.0
2017-Apr-17 11:30N 43°21' E 005°20'0 0.0
2017-Apr-17 10:57N 43°21' E 005°20'0 0.0
2017-Apr-17 10:30N 43°21' E 005°20'0 0.0
2017-Apr-17 09:57N 43°21' E 005°20'0 0.0
2017-Apr-17 09:30N 43°21' E 005°20'0 0.0
2017-Apr-17 08:59N 43°21' E 005°20'0 0.0
2017-Apr-17 08:23N 43°21' E 005°20'0 0.0
2017-Apr-17 07:59N 43°21' E 005°20'0 0.0
2017-Apr-17 07:29N 43°21' E 005°20'0 0.0
2017-Apr-17 06:58N 43°21' E 005°20'0 0.0
2017-Apr-17 06:28N 43°21' E 005°20'0 0.0
2017-Apr-17 05:58N 43°21' E 005°20'0 0.0
2017-Apr-17 05:28N 43°21' E 005°20'0 0.6
2017-Apr-17 05:00N 43°21' E 005°20'4 7.8
2017-Apr-17 04:30N 43°19' E 005°15'7011.7
2017-Apr-16 22:34N 43°05' E 006°48'1213.0
2017-Apr-16 21:39N 43°12' E 007°01'212.2
2017-Apr-16 21:30N 43°13' E 007°03'612.3
2017-Apr-16 21:00N 43°16' E 007°10'713.1
2017-Apr-16 20:30N 43°20' E 007°17'713.5
2017-Apr-16 20:00N 43°24' E 007°25'713.6
2017-Apr-16 19:30N 43°29' E 007°32'714.5
2017-Apr-16 19:01N 43°33' E 007°39'1019.1
2017-Apr-16 18:30N 43°39' E 007°50'918.8
2017-Apr-16 18:00N 43°46' E 007°59'918.5
2017-Apr-16 17:30N 43°52' E 008°08'918.3
2017-Apr-16 17:00N 43°59' E 008°17'918.2
2017-Apr-16 16:30N 44°07' E 008°24'918.1
2017-Apr-16 16:00N 44°14' E 008°31'5 9.9
2017-Apr-16 15:30N 44°19' E 008°30'1 1.6
2017-Apr-16 14:58N 44°19' E 008°29'0 0.0
2017-Apr-16 13:55N 44°19' E 008°29'0 0.0
2017-Apr-16 13:28N 44°19' E 008°29'0 0.0
2017-Apr-16 13:00N 44°19' E 008°29'0 0.0
2017-Apr-16 12:30N 44°19' E 008°29'0 0.0
2017-Apr-16 12:00N 44°19' E 008°29'0 0.0
2017-Apr-16 11:30N 44°19' E 008°29'0 0.0
2017-Apr-16 11:00N 44°19' E 008°29'0 0.0
2017-Apr-16 10:29N 44°19' E 008°29'0 0.0
2017-Apr-16 09:59N 44°19' E 008°29'0 0.0
2017-Apr-16 09:29N 44°19' E 008°29'0 0.0
2017-Apr-16 08:59N 44°19' E 008°29'0 0.0
2017-Apr-16 08:29N 44°19' E 008°29'0 0.0
2017-Apr-16 07:58N 44°19' E 008°29'0 0.0
2017-Apr-16 07:28N 44°19' E 008°29'0 0.0
2017-Apr-16 06:58N 44°19' E 008°29'0 0.0
2017-Apr-16 06:28N 44°19' E 008°29'0 0.0
2017-Apr-16 06:00N 44°19' E 008°29'0 0.1
2017-Apr-16 05:30N 44°19' E 008°29'2 4.7
2017-Apr-16 05:00N 44°18' E 008°33'612.0
2017-Apr-16 04:30N 44°13' E 008°37'713.3
2017-Apr-16 04:00N 44°08' E 008°42'713.3
2017-Apr-16 03:30N 44°02' E 008°47'713.6
2017-Apr-16 03:00N 43°56' E 008°52'713.8
2017-Apr-16 02:30N 43°50' E 008°57'713.5
2017-Apr-16 02:00N 43°45' E 009°02'713.4
2017-Apr-16 01:30N 43°39' E 009°07'713.4
2017-Apr-16 01:00N 43°33' E 009°12'917.7
2017-Apr-16 00:30N 43°26' E 009°18'1019.1
2017-Apr-16 00:00N 43°18' E 009°26'918.8
2017-Apr-15 23:30N 43°10' E 009°33'918.8
2017-Apr-15 23:00N 43°02' E 009°39'918.6
2017-Apr-15 22:30N 42°53' E 009°43'918.8
2017-Apr-15 22:00N 42°48' E 009°54'1018.9
2017-Apr-15 21:30N 42°42' E 010°04'1318.9
2017-Apr-15 20:49N 42°34' E 010°18'618.8
2017-Apr-15 20:29N 42°30' E 010°24'918.9
2017-Apr-15 20:00N 42°24' E 010°34'  
Track history (hours):
 
Tides and Currents Weather Stations Pressure Air Temp Water Temp Dewpoint Dewpoint Depression Visibility Wind Speed Wind Dir Waves Ship Positions

Costa Pacifica

Last reported at 2017-Apr-24 21:00 UTC. Time now 2017-Apr-24 21:04 UTC.
Position N 42°23' E 003°58'.

Length 290 m; draft 8.3 m.

Type: Ship. MMSI: 247258100.

Date/timePositionNaut miles runAvg speedWind from/ knotsBaromVisibWave heightAir tempDewpointWater temp
2017-Apr-24 21:00N 42°23' E 003°58'1313.0
2017-Apr-24 19:58N 42°32' E 004°11'2713.2
2017-Apr-24 17:58N 42°51' E 004°36'613.6
2017-Apr-24 17:30N 42°55' E 004°42'918.7
2017-Apr-24 17:00N 43°02' E 004°52'918.6
2017-Apr-24 16:30N 43°08' E 005°01'918.6
2017-Apr-24 16:00N 43°15' E 005°10'816.5
2017-Apr-24 15:30N 43°21' E 005°18'2 2.7
2017-Apr-24 14:55N 43°21' E 005°20'0 0.0
2017-Apr-24 14:22N 43°21' E 005°20'0 0.0
2017-Apr-24 13:30N 43°21' E 005°20'0 0.0
2017-Apr-24 12:57N 43°21' E 005°20'0 0.0
2017-Apr-24 12:18N 43°21' E 005°20'0 0.0
2017-Apr-24 12:00N 43°21' E 005°20'0 0.0
2017-Apr-24 11:30N 43°21' E 005°20'0 0.0
2017-Apr-24 10:59N 43°21' E 005°20'0 0.0
2017-Apr-24 10:26N 43°21' E 005°20'0 0.0
2017-Apr-24 09:50N 43°21' E 005°20'0 0.0
2017-Apr-24 09:29N 43°21' E 005°20'0 0.0
2017-Apr-24 08:58N 43°21' E 005°20'0 0.0
2017-Apr-24 08:22N 43°21' E 005°20'0 0.0
2017-Apr-24 07:37N 43°21' E 005°20'0 0.0
2017-Apr-24 07:16N 43°21' E 005°20'0 0.0
2017-Apr-24 06:58N 43°21' E 005°20'0 0.0
2017-Apr-24 06:30N 43°21' E 005°20'0 0.0
2017-Apr-24 05:57N 43°21' E 005°20'0 0.0
2017-Apr-24 05:30N 43°21' E 005°20'1 2.9
2017-Apr-24 05:00N 43°21' E 005°18'5 9.1
2017-Apr-24 04:30N 43°18' E 005°14'816.5
2017-Apr-24 04:00N 43°10' E 005°19'7611.7
2017-Apr-23 21:34N 43°12' E 007°02'113.4
2017-Apr-23 21:30N 43°13' E 007°03'713.4
2017-Apr-23 21:00N 43°17' E 007°10'713.5
2017-Apr-23 20:31N 43°21' E 007°18'713.4
2017-Apr-23 20:00N 43°25' E 007°25'713.4
2017-Apr-23 19:30N 43°29' E 007°33'713.5
2017-Apr-23 19:01N 43°33' E 007°40'815.9
2017-Apr-23 18:30N 43°38' E 007°48'1019.0
2017-Apr-23 18:00N 43°45' E 007°58'1318.9
2017-Apr-23 17:20N 43°54' E 008°10'619.1
2017-Apr-23 17:00N 43°58' E 008°16'919.0
2017-Apr-23 16:31N 44°06' E 008°23'918.2
2017-Apr-23 16:01N 44°13' E 008°31'611.3
2017-Apr-23 15:30N 44°19' E 008°30'1 1.6
2017-Apr-23 14:59N 44°19' E 008°29'0 0.0
2017-Apr-23 13:55N 44°19' E 008°29'0 0.0
2017-Apr-23 13:25N 44°19' E 008°29'0 0.0
2017-Apr-23 12:55N 44°19' E 008°29'0 0.0
2017-Apr-23 12:28N 44°19' E 008°29'0 0.0
2017-Apr-23 11:55N 44°19' E 008°29'0 0.0
2017-Apr-23 11:30N 44°19' E 008°29'0 0.0
2017-Apr-23 11:00N 44°19' E 008°29'0 0.0
2017-Apr-23 10:30N 44°19' E 008°29'0 0.0
2017-Apr-23 10:00N 44°19' E 008°29'0 0.0
2017-Apr-23 09:30N 44°19' E 008°29'0 0.0
2017-Apr-23 08:59N 44°19' E 008°29'0 0.0
2017-Apr-23 08:29N 44°19' E 008°29'0 0.0
2017-Apr-23 07:53N 44°19' E 008°29'0 0.0
2017-Apr-23 07:27N 44°19' E 008°29'0 0.0
2017-Apr-23 07:00N 44°19' E 008°29'0 0.0
2017-Apr-23 06:30N 44°19' E 008°29'0 0.0
2017-Apr-23 06:00N 44°19' E 008°29'0 0.3
2017-Apr-23 05:30N 44°19' E 008°29'2 4.9
2017-Apr-23 05:00N 44°18' E 008°33'816.1
2017-Apr-23 04:30N 44°11' E 008°39'713.2
2017-Apr-23 04:01N 44°06' E 008°43'612.5
2017-Apr-23 03:30N 44°00' E 008°48'612.9
2017-Apr-23 03:00N 43°55' E 008°53'612.7
2017-Apr-23 02:30N 43°50' E 008°58'612.4
2017-Apr-23 02:00N 43°44' E 009°02'612.3
2017-Apr-23 01:30N 43°39' E 009°07'816.9
2017-Apr-23 01:00N 43°32' E 009°13'918.2
2017-Apr-23 00:30N 43°24' E 009°19'918.0
2017-Apr-23 00:01N 43°17' E 009°27'917.8
2017-Apr-22 23:30N 43°09' E 009°33'918.2
2017-Apr-22 23:00N 43°01' E 009°39'1218.4
2017-Apr-22 22:22N 42°51' E 009°47'2019.0
2017-Apr-22 21:19N 42°39' E 010°09'618.9
2017-Apr-22 21:00N 42°35' E 010°15'1718.8
2017-Apr-22 20:07N 42°25' E 010°33'204 7.6
2017-Apr-21 17:19N 39°05' E 009°41'618.1
2017-Apr-21 16:59N 39°01' E 009°35'816.5
2017-Apr-21 16:30N 39°01' E 009°25'918.2
2017-Apr-21 16:00N 39°05' E 009°15'816.5
2017-Apr-21 15:30N 39°10' E 009°06'2 4.1
2017-Apr-21 14:58N 39°13' E 009°06'0 0.0
2017-Apr-21 14:30N 39°13' E 009°06'0 0.0
2017-Apr-21 13:30N 39°13' E 009°06'0 0.0
2017-Apr-21 13:00N 39°13' E 009°06'0 0.0
2017-Apr-21 12:30N 39°13' E 009°06'0 0.0
2017-Apr-21 11:59N 39°13' E 009°06'0 0.0
2017-Apr-21 11:29N 39°13' E 009°06'0 0.0
2017-Apr-21 10:59N 39°13' E 009°06'0 0.0
2017-Apr-21 10:29N 39°13' E 009°06'0 0.0
2017-Apr-21 09:58N 39°13' E 009°06'0 0.0
2017-Apr-21 09:28N 39°13' E 009°06'0 0.0
2017-Apr-21 08:58N 39°13' E 009°06'0 0.0
2017-Apr-21 08:28N 39°13' E 009°06'0 0.0
2017-Apr-21 07:58N 39°13' E 009°06'0 0.0
2017-Apr-21 07:30N 39°13' E 009°06'0 0.0
2017-Apr-21 07:00N 39°13' E 009°06'0 0.0
2017-Apr-21 06:30N 39°13' E 009°06'0 0.0
2017-Apr-21 06:00N 39°13' E 009°06'0 0.3
2017-Apr-21 05:30N 39°12' E 009°07'2 3.4
2017-Apr-21 05:00N 39°11' E 009°06'815.7
2017-Apr-21 04:30N 39°03' E 009°08'917.9
2017-Apr-21 04:00N 38°56' E 009°01'917.9
2017-Apr-21 03:30N 38°50' E 008°52'3217.2
2017-Apr-21 01:39N 38°45' E 008°11'22412.4
2017-Apr-20 07:40N 39°03' E 003°25'211.9
2017-Apr-20 07:30N 39°03' E 003°22'611.9
2017-Apr-20 07:00N 39°04' E 003°15'611.8
2017-Apr-20 06:30N 39°04' E 003°07'611.6
2017-Apr-20 06:00N 39°05' E 002°60'611.3
2017-Apr-20 05:30N 39°05' E 002°52'611.6
2017-Apr-20 05:00N 39°06' E 002°45'612.3
2017-Apr-20 04:30N 39°07' E 002°37'612.6
2017-Apr-20 04:00N 39°08' E 002°29'612.6
2017-Apr-20 03:30N 39°08' E 002°21'612.2
2017-Apr-20 03:00N 39°09' E 002°13'612.1
2017-Apr-20 02:30N 39°10' E 002°05'612.0
2017-Apr-20 02:00N 39°11' E 001°58'611.6
2017-Apr-20 01:30N 39°12' E 001°51'611.3
2017-Apr-20 01:00N 39°12' E 001°43'611.1
2017-Apr-20 00:30N 39°13' E 001°36'510.8
2017-Apr-20 00:00N 39°13' E 001°29'611.2
2017-Apr-19 23:30N 39°14' E 001°22'610.9
2017-Apr-19 23:00N 39°15' E 001°15'610.6
2017-Apr-19 22:23N 39°16' E 001°07'5511.0
2017-Apr-19 17:24N 39°23' W 000°04'717.2
2017-Apr-19 17:00N 39°23' W 000°12'612.0
2017-Apr-19 16:31N 39°27' W 000°18'0 0.6
2017-Apr-19 15:59N 39°28' W 000°18'0 0.0
2017-Apr-19 15:28N 39°28' W 000°18'0 0.0
2017-Apr-19 14:58N 39°28' W 000°18'0 0.0
2017-Apr-19 14:28N 39°28' W 000°18'0 0.0
2017-Apr-19 13:24N 39°28' W 000°18'0 0.0
2017-Apr-19 13:00N 39°28' W 000°18'0 0.0
2017-Apr-19 12:30N 39°28' W 000°18'0 0.0
2017-Apr-19 12:00N 39°28' W 000°18'0 0.0
2017-Apr-19 11:30N 39°28' W 000°18'0 0.0
2017-Apr-19 10:59N 39°28' W 000°18'0 0.0
2017-Apr-19 10:29N 39°28' W 000°18'0 0.0
2017-Apr-19 09:59N 39°28' W 000°18'0 0.0
2017-Apr-19 09:29N 39°28' W 000°18'0 0.0
2017-Apr-19 08:55N 39°28' W 000°18'0 0.0
2017-Apr-19 08:28N 39°28' W 000°18'0 0.0
2017-Apr-19 07:58N 39°28' W 000°18'0 0.0
2017-Apr-19 07:28N 39°28' W 000°18'0 0.0
2017-Apr-19 06:58N 39°28' W 000°18'0 0.0
2017-Apr-19 06:30N 39°28' W 000°18'0 0.0
2017-Apr-19 06:00N 39°28' W 000°18'0 0.4
2017-Apr-19 05:31N 39°27' W 000°18'2 4.1
2017-Apr-19 05:01N 39°25' W 000°17'611.2
2017-Apr-19 04:28N 39°25' W 000°09'5813.0
2017-Apr-19 00:00N 40°08' E 000°42'713.2
2017-Apr-18 23:30N 40°12' E 000°49'713.1
2017-Apr-18 23:00N 40°16' E 000°55'713.2
2017-Apr-18 22:30N 40°21' E 001°02'713.0
2017-Apr-18 22:00N 40°25' E 001°08'612.8
2017-Apr-18 21:30N 40°29' E 001°14'612.6
2017-Apr-18 21:00N 40°33' E 001°21'613.0
2017-Apr-18 20:31N 40°37' E 001°27'713.3
2017-Apr-18 20:00N 40°42' E 001°33'713.4
2017-Apr-18 19:31N 40°47' E 001°39'713.5
2017-Apr-18 19:00N 40°53' E 001°44'713.2
2017-Apr-18 18:30N 40°58' E 001°50'816.0
2017-Apr-18 18:00N 41°04' E 001°57'918.9
2017-Apr-18 17:30N 41°11' E 002°05'916.2
2017-Apr-18 16:58N 41°19' E 002°10'3 0.4
2017-Apr-18 10:00N 41°22' E 002°11'0 0.0
2017-Apr-18 07:17N 41°22' E 002°11'0 0.0
2017-Apr-18 06:52N 41°22' E 002°11'0 0.0
2017-Apr-18 06:16N 41°22' E 002°11'0 0.0
2017-Apr-18 05:58N 41°22' E 002°11'0 0.4
2017-Apr-18 05:30N 41°22' E 002°11'3 5.1
2017-Apr-18 04:59N 41°19' E 002°10'4 9.3
2017-Apr-18 04:30N 41°17' E 002°15'713.4
2017-Apr-18 04:00N 41°21' E 002°22'713.5
2017-Apr-18 03:30N 41°25' E 002°29'713.5
2017-Apr-18 03:00N 41°29' E 002°37'713.2
2017-Apr-18 02:27N 41°34' E 002°44'1113.1
2017-Apr-18 01:36N 41°40' E 002°56'213.3
2017-Apr-18 01:29N 41°41' E 002°58'613.2
2017-Apr-18 01:00N 41°45' E 003°05'2113.0
2017-Apr-17 23:21N 41°59' E 003°26'2013.4
2017-Apr-17 21:52N 42°13' E 003°45'913.3
2017-Apr-17 21:09N 42°20' E 003°54'213.5
2017-Apr-17 21:00N 42°21' E 003°56'713.6
2017-Apr-17 20:30N 42°26' E 004°03'2112.9
2017-Apr-17 18:53N 42°41' E 004°23'612.8
2017-Apr-17 18:24N 42°45' E 004°29'612.9
2017-Apr-17 17:56N 42°49' E 004°35'613.1
2017-Apr-17 17:30N 42°53' E 004°40'1018.5
2017-Apr-17 16:58N 43°00' E 004°50'818.2
2017-Apr-17 16:30N 43°06' E 004°58'918.2
2017-Apr-17 16:00N 43°13' E 005°07'917.8
2017-Apr-17 15:31N 43°19' E 005°16'4 6.9
2017-Apr-17 14:59N 43°21' E 005°20'0 0.0
2017-Apr-17 13:59N 43°21' E 005°20'0 0.0
2017-Apr-17 13:28N 43°21' E 005°20'0 0.0
2017-Apr-17 12:52N 43°21' E 005°20'0 0.0
2017-Apr-17 12:28N 43°21' E 005°20'0 0.0
2017-Apr-17 11:49N 43°21' E 005°20'0 0.0
2017-Apr-17 11:30N 43°21' E 005°20'0 0.0
2017-Apr-17 10:57N 43°21' E 005°20'0 0.0
2017-Apr-17 10:30N 43°21' E 005°20'0 0.0
2017-Apr-17 09:57N 43°21' E 005°20'0 0.0
2017-Apr-17 09:30N 43°21' E 005°20'0 0.0
2017-Apr-17 08:59N 43°21' E 005°20'0 0.0
2017-Apr-17 08:23N 43°21' E 005°20'0 0.0
2017-Apr-17 07:59N 43°21' E 005°20'0 0.0
2017-Apr-17 07:29N 43°21' E 005°20'0 0.0
2017-Apr-17 06:58N 43°21' E 005°20'0 0.0
2017-Apr-17 06:28N 43°21' E 005°20'0 0.0
2017-Apr-17 05:58N 43°21' E 005°20'0 0.0
2017-Apr-17 05:28N 43°21' E 005°20'0 0.6
2017-Apr-17 05:00N 43°21' E 005°20'4 7.8
2017-Apr-17 04:30N 43°19' E 005°15'7011.7
2017-Apr-16 22:34N 43°05' E 006°48'1213.0
2017-Apr-16 21:39N 43°12' E 007°01'212.2
2017-Apr-16 21:30N 43°13' E 007°03'612.3
2017-Apr-16 21:00N 43°16' E 007°10'713.1
2017-Apr-16 20:30N 43°20' E 007°17'713.5
2017-Apr-16 20:00N 43°24' E 007°25'713.6
2017-Apr-16 19:30N 43°29' E 007°32'714.5
2017-Apr-16 19:01N 43°33' E 007°39'1019.1
2017-Apr-16 18:30N 43°39' E 007°50'918.8
2017-Apr-16 18:00N 43°46' E 007°59'918.5
2017-Apr-16 17:30N 43°52' E 008°08'918.3
2017-Apr-16 17:00N 43°59' E 008°17'918.2
2017-Apr-16 16:30N 44°07' E 008°24'918.1
2017-Apr-16 16:00N 44°14' E 008°31'5 9.9
2017-Apr-16 15:30N 44°19' E 008°30'1 1.6
2017-Apr-16 14:58N 44°19' E 008°29'0 0.0
2017-Apr-16 13:55N 44°19' E 008°29'0 0.0
2017-Apr-16 13:28N 44°19' E 008°29'0 0.0
2017-Apr-16 13:00N 44°19' E 008°29'0 0.0
2017-Apr-16 12:30N 44°19' E 008°29'0 0.0
2017-Apr-16 12:00N 44°19' E 008°29'0 0.0
2017-Apr-16 11:30N 44°19' E 008°29'0 0.0
2017-Apr-16 11:00N 44°19' E 008°29'0 0.0
2017-Apr-16 10:29N 44°19' E 008°29'0 0.0
2017-Apr-16 09:59N 44°19' E 008°29'0 0.0
2017-Apr-16 09:29N 44°19' E 008°29'0 0.0
2017-Apr-16 08:59N 44°19' E 008°29'0 0.0
2017-Apr-16 08:29N 44°19' E 008°29'0 0.0
2017-Apr-16 07:58N 44°19' E 008°29'0 0.0
2017-Apr-16 07:28N 44°19' E 008°29'0 0.0
2017-Apr-16 06:58N 44°19' E 008°29'0 0.0
2017-Apr-16 06:28N 44°19' E 008°29'0 0.0
2017-Apr-16 06:00N 44°19' E 008°29'0 0.1
2017-Apr-16 05:30N 44°19' E 008°29'2 4.7
2017-Apr-16 05:00N 44°18' E 008°33'612.0
2017-Apr-16 04:30N 44°13' E 008°37'713.3
2017-Apr-16 04:00N 44°08' E 008°42'713.3
2017-Apr-16 03:30N 44°02' E 008°47'713.6
2017-Apr-16 03:00N 43°56' E 008°52'713.8
2017-Apr-16 02:30N 43°50' E 008°57'713.5
2017-Apr-16 02:00N 43°45' E 009°02'713.4
2017-Apr-16 01:30N 43°39' E 009°07'713.4
2017-Apr-16 01:00N 43°33' E 009°12'917.7
2017-Apr-16 00:30N 43°26' E 009°18'1019.1
2017-Apr-16 00:00N 43°18' E 009°26'918.8
2017-Apr-15 23:30N 43°10' E 009°33'918.8
2017-Apr-15 23:00N 43°02' E 009°39'918.6
2017-Apr-15 22:30N 42°53' E 009°43'918.8
2017-Apr-15 22:00N 42°48' E 009°54'1018.9
2017-Apr-15 21:30N 42°42' E 010°04'1318.9
2017-Apr-15 20:49N 42°34' E 010°18'618.8
2017-Apr-15 20:29N 42°30' E 010°24'918.9
2017-Apr-15 20:00N 42°24' E 010°34'  

Dump ship's entire track history